Time;durP1;ratioP1;P1;durP2;ratioP2;P2;SDS_P1;SDS_P2;PMS_P1;PMS_P2;Temp;Humidity;BMP_temperature;BMP_pressure;BME280_temperature;BME280_humidity;BME280_pressure;Samples;Min_cycle;Max_cycle;Signal;HPM_P1;HPM_P2
2021/04/18 11:33:12;;;;;;;20.52;9.20;;;307.70;1996.80;;;;;;4849254;29;20060;-63
2021/04/18 11:35:38;;;;;;;9.00;7.13;;;332.80;1945.60;;;;;;4862898;29;20420;-67
2021/04/18 11:38:04;;;;;;;40.83;13.38;;;333.20;1920.00;;;;;;4862683;29;20394;-65
2021/04/18 11:40:30;;;;;;;45.33;20.02;;;333.50;1971.20;;;;;;4862848;29;20026;-65
2021/04/18 11:42:56;;;;;;;92.68;27.95;;;333.40;1817.60;;;;;;4862525;29;20029;-65
2021/04/18 11:45:23;;;;;;;73.35;30.25;;;333.70;1894.40;;;;;;4862807;29;20067;-69
2021/04/18 11:47:48;;;;;;;88.90;35.42;;;333.60;1868.80;;;;;;4861853;29;20578;-69
2021/04/18 11:50:15;;;;;;;16.67;10.93;;;333.30;1971.20;;;;;;4862623;29;20124;-67
2021/04/18 11:52:42;;;;;;;8.68;6.53;;;332.90;2022.40;;;;;;4862619;29;20037;-66
2021/04/18 11:55:09;;;;;;;17.95;13.30;;;308.10;1945.60;;;;;;4862657;29;20033;-67
2021/04/18 11:57:35;;;;;;;7.93;6.60;;;332.80;2022.40;;;;;;4862598;29;20101;-68
2021/04/18 12:00:02;;;;;;;4.95;4.10;;;333.00;2022.40;;;;;;4862032;29;20034;-66
2021/04/18 12:02:27;;;;;;;13.15;9.50;;;333.10;1868.80;;;;;;4862123;29;20034;-66
2021/04/18 12:04:53;;;;;;;19.48;13.75;;;333.20;1894.40;;;;;;4862409;29;20041;-66
2021/04/18 12:07:19;;;;;;;16.13;11.48;;;333.60;1971.20;;;;;;4862284;29;20048;-68
2021/04/18 12:09:44;;;;;;;7.93;6.10;;;358.50;1945.60;;;;;;4861847;29;20101;-67
2021/04/18 12:12:10;;;;;;;14.02;10.45;;;358.80;1792.00;;;;;;4845479;29;20021;-67
2021/04/18 12:14:36;;;;;;;14.07;8.90;;;359.10;1740.80;;;;;;4862187;29;20037;-67
2021/04/18 12:17:02;;;;;;;14.52;8.45;;;384.20;1715.20;;;;;;4862002;29;20429;-67
2021/04/18 12:19:28;;;;;;;43.63;19.85;;;384.50;1664.00;;;;;;4862012;29;20025;-68
2021/04/18 12:21:53;;;;;;;40.40;15.38;;;384.80;1638.40;;;;;;4861890;29;20033;-67
2021/04/18 12:24:19;;;;;;;13.10;8.20;;;410.00;1510.40;;;;;;4855594;29;20033;-67
2021/04/18 12:26:45;;;;;;;16.38;10.13;;;410.50;1536.00;;;;;;4823365;29;20026;-67
2021/04/18 12:29:11;;;;;;;9.48;6.30;;;435.60;1459.20;;;;;;4848853;29;20507;-65
2021/04/18 12:31:40;;;;;;;18.73;11.52;;;435.90;1459.20;;;;;;4850048;29;20098;-66
2021/04/18 12:34:06;;;;;;;11.55;7.97;;;436.00;1459.20;;;;;;4859670;29;20049;-64
2021/04/18 12:36:32;;;;;;;22.45;14.45;;;435.80;1459.20;;;;;;4860656;29;20432;-67
2021/04/18 12:38:58;;;;;;;4.28;3.88;;;435.80;1408.00;;;;;;4861359;29;20032;-64
2021/04/18 12:41:24;;;;;;;8.13;6.47;;;461.10;1356.80;;;;;;4853483;29;20026;-64
2021/04/18 12:43:50;;;;;;;13.65;9.57;;;461.60;1408.00;;;;;;4842874;29;20108;-65
2021/04/18 12:46:16;;;;;;;14.80;10.52;;;461.20;1382.40;;;;;;4842739;29;20113;-69
2021/04/18 12:48:42;;;;;;;5.75;4.35;;;460.80;1408.00;;;;;;4842756;29;20057;-64
2021/04/18 12:51:07;;;;;;;2.50;1.85;;;436.10;1356.80;;;;;;4850070;29;20034;-66
2021/04/18 12:53:33;;;;;;;9.75;7.40;;;461.20;1254.40;;;;;;4860952;29;20436;-64
2021/04/18 12:55:59;;;;;;;5.35;4.20;;;486.80;1280.00;;;;;;4844619;29;20120;-64
2021/04/18 12:58:25;;;;;;;5.18;3.85;;;512.90;1100.80;;;;;;4859037;29;20121;-66
2021/04/18 13:00:51;;;;;;;3.83;3.05;;;563.40;972.80;;;;;;4851867;29;20105;-67
2021/04/18 13:03:16;;;;;;;22.58;13.43;;;588.80;998.40;;;;;;4842783;29;20428;-70
2021/04/18 13:05:42;;;;;;;9.27;6.22;;;563.90;1024.00;;;;;;4842767;29;20033;-67
2021/04/18 13:08:08;;;;;;;12.40;8.15;;;563.20;1024.00;;;;;;4842505;29;20357;-67
2021/04/18 13:10:34;;;;;;;19.77;12.13;;;563.50;998.40;;;;;;4842537;29;20034;-67
2021/04/18 13:12:59;;;;;;;30.95;17.33;;;563.40;1100.80;;;;;;4842321;29;20027;-68
2021/04/18 13:15:25;;;;;;;6.20;4.28;;;538.20;1100.80;;;;;;4842646;29;20030;-67
2021/04/18 13:17:51;;;;;;;24.48;13.40;;;538.10;1100.80;;;;;;4842537;29;20032;-68
2021/04/18 13:20:18;;;;;;;15.00;9.65;;;512.80;1075.20;;;;;;4842048;29;20033;-66
2021/04/18 13:22:44;;;;;;;24.70;14.13;;;487.20;1203.20;;;;;;4842156;29;20091;-68
2021/04/18 13:25:12;;;;;;;16.17;9.88;;;486.70;1254.40;;;;;;4842168;29;20026;-65
2021/04/18 13:27:38;;;;;;;19.40;10.52;;;461.50;1280.00;;;;;;4842585;29;20051;-64
2021/04/18 13:30:07;;;;;;;28.33;15.23;;;461.10;1305.60;;;;;;4842299;29;20046;-65
2021/04/18 13:32:33;;;;;;;15.95;10.57;;;460.80;1331.20;;;;;;4842277;29;20050;-64
2021/04/18 13:34:59;;;;;;;18.50;11.93;;;435.90;1356.80;;;;;;4842138;29;20041;-67
2021/04/18 13:37:24;;;;;;;12.80;9.57;;;435.40;1433.60;;;;;;4842512;29;20030;-67
2021/04/18 13:39:50;;;;;;;18.48;12.55;;;410.40;1484.80;;;;;;4842314;29;20046;-65
2021/04/18 13:42:17;;;;;;;11.60;7.43;;;410.00;1536.00;;;;;;4841979;29;20057;-64
2021/04/18 13:44:43;;;;;;;8.07;6.32;;;409.80;1536.00;;;;;;4842134;29;20036;-64
2021/04/18 13:47:08;;;;;;;11.40;8.55;;;384.90;1536.00;;;;;;4842748;29;20369;-65
2021/04/18 13:49:34;;;;;;;12.52;8.70;;;384.80;1561.60;;;;;;4845871;29;20074;-68
2021/04/18 13:52:00;;;;;;;9.52;7.50;;;384.70;1587.20;;;;;;4829019;29;20037;-65
2021/04/18 13:54:26;;;;;;;18.90;11.73;;;384.70;1612.80;;;;;;4845616;29;20117;-66
2021/04/18 13:56:51;;;;;;;20.05;12.68;;;384.50;1612.80;;;;;;4846076;29;20060;-65
2021/04/18 13:59:17;;;;;;;15.88;10.63;;;384.50;1612.80;;;;;;4845760;29;20440;-70
2021/04/18 14:01:43;;;;;;;6.65;5.50;;;384.30;1612.80;;;;;;4845266;29;20085;-65
2021/04/18 14:04:08;;;;;;;22.10;14.82;;;384.20;1612.80;;;;;;4845586;29;20037;-66
2021/04/18 14:06:34;;;;;;;17.75;11.93;;;384.10;1638.40;;;;;;4845625;29;20361;-64
2021/04/18 14:09:00;;;;;;;7.88;6.00;;;359.30;1638.40;;;;;;4845669;29;20049;-66
2021/04/18 14:11:26;;;;;;;7.32;5.60;;;359.20;1664.00;;;;;;4845639;29;20034;-64
2021/04/18 14:13:53;;;;;;;5.82;4.82;;;359.10;1664.00;;;;;;4845495;29;20028;-64
2021/04/18 14:16:19;;;;;;;5.50;5.00;;;359.00;1664.00;;;;;;4845310;29;20030;-65
2021/04/18 14:18:45;;;;;;;6.68;4.72;;;359.00;1689.60;;;;;;4845366;29;20182;-65
2021/04/18 14:21:11;;;;;;;6.93;4.97;;;358.90;1715.20;;;;;;4845449;29;20030;-66
2021/04/18 14:23:37;;;;;;;9.70;7.07;;;358.90;1689.60;;;;;;4845533;29;20026;-66
2021/04/18 14:26:05;;;;;;;10.90;8.30;;;358.70;1715.20;;;;;;4845396;29;20048;-70
2021/04/18 14:28:32;;;;;;;7.22;6.22;;;358.70;1766.40;;;;;;4843682;29;20090;-71
2021/04/18 14:31:01;;;;;;;12.55;6.85;;;358.80;1715.20;;;;;;4845142;29;20114;-67
2021/04/18 14:33:27;;;;;;;11.90;6.47;;;358.80;1689.60;;;;;;4845074;29;20046;-70
2021/04/18 14:35:53;;;;;;;15.20;8.50;;;358.80;1715.20;;;;;;4845385;29;20026;-69
2021/04/18 14:38:18;;;;;;;18.27;11.32;;;358.80;1740.80;;;;;;4845076;29;20034;-67
2021/04/18 14:40:45;;;;;;;13.32;7.95;;;358.70;1715.20;;;;;;4844984;29;20067;-68
2021/04/18 14:43:11;;;;;;;22.13;13.60;;;358.80;1638.40;;;;;;4845350;29;20034;-68
2021/04/18 14:45:38;;;;;;;11.40;6.75;;;358.90;1664.00;;;;;;4844999;29;20086;-67
2021/04/18 14:48:05;;;;;;;14.20;8.02;;;358.90;1664.00;;;;;;4844931;29;20031;-68
2021/04/18 14:50:32;;;;;;;15.57;9.10;;;358.90;1689.60;;;;;;4846430;29;20041;-68
2021/04/18 14:52:58;;;;;;;21.90;13.40;;;358.80;1715.20;;;;;;4863671;29;20104;-67
2021/04/18 14:55:25;;;;;;;46.75;24.17;;;358.90;1664.00;;;;;;4863333;29;20475;-67
2021/04/18 14:57:51;;;;;;;11.98;8.05;;;358.90;1689.60;;;;;;4835212;29;20026;-68
2021/04/18 15:00:23;;;;;;;13.93;8.40;;;358.90;1689.60;;;;;;4848533;29;20045;-64
2021/04/18 15:02:49;;;;;;;12.50;7.15;;;358.90;1689.60;;;;;;4862650;29;20029;-63
2021/04/18 15:05:16;;;;;;;12.15;6.80;;;358.70;1689.60;;;;;;4862995;29;20033;-63
2021/04/18 15:07:41;;;;;;;10.85;6.30;;;358.80;1689.60;;;;;;4862593;29;20387;-65
2021/04/18 15:10:07;;;;;;;9.80;6.32;;;358.80;1715.20;;;;;;4862590;29;20045;-64
2021/04/18 15:12:33;;;;;;;16.52;9.55;;;358.90;1664.00;;;;;;4862806;29;20026;-65
2021/04/18 15:14:59;;;;;;;16.08;8.77;;;358.80;1689.60;;;;;;4862965;29;20033;-64
2021/04/18 15:17:25;;;;;;;10.45;6.70;;;358.70;1715.20;;;;;;4862793;29;20037;-64
2021/04/18 15:19:53;;;;;;;14.50;8.07;;;358.60;1766.40;;;;;;4862943;29;20038;-64
2021/04/18 15:22:19;;;;;;;14.43;8.60;;;358.40;1792.00;;;;;;4862903;29;20036;-65
2021/04/18 15:24:49;;;;;;;9.77;5.85;;;358.50;1792.00;;;;;;4862703;29;20060;-64
2021/04/18 15:27:14;;;;;;;8.25;5.45;;;358.50;1792.00;;;;;;4862671;29;20057;-69
2021/04/18 15:29:40;;;;;;;12.27;8.38;;;358.40;1766.40;;;;;;4845017;29;20450;-70
2021/04/18 15:32:16;;;;;;;10.32;6.50;;;358.40;1766.40;;;;;;4860656;29;20030;-64
2021/04/18 15:34:42;;;;;;;8.25;5.78;;;333.70;1792.00;;;;;;4862584;29;20049;-66
2021/04/18 15:37:15;;;;;;;16.45;10.32;;;333.70;1792.00;;;;;;4845800;29;20026;-66
2021/04/18 15:39:44;;;;;;;21.38;12.80;;;333.70;1843.20;;;;;;4845284;29;20030;-70
2021/04/18 15:42:12;;;;;;;22.88;12.75;;;333.70;1792.00;;;;;;4862127;29;20391;-66
2021/04/18 15:44:38;;;;;;;37.03;20.35;;;333.70;1792.00;;;;;;4862276;29;20034;-66
2021/04/18 15:47:04;;;;;;;29.92;15.68;;;358.40;1792.00;;;;;;4862290;29;20030;-63
2021/04/18 15:49:30;;;;;;;22.17;12.95;;;333.60;1792.00;;;;;;4862124;29;20064;-65
2021/04/18 15:51:55;;;;;;;19.25;12.60;;;333.40;1792.00;;;;;;4862117;29;20029;-66
2021/04/18 15:54:21;;;;;;;20.35;13.45;;;333.40;1817.60;;;;;;4862452;29;20041;-67
2021/04/18 15:56:47;;;;;;;34.58;18.70;;;333.20;1843.20;;;;;;4862568;29;20038;-67
2021/04/18 15:59:13;;;;;;;18.92;11.52;;;333.30;1843.20;;;;;;4861899;29;20443;-62
2021/04/18 16:01:39;;;;;;;19.08;12.75;;;333.20;1868.80;;;;;;4862122;29;20049;-58
2021/04/18 16:04:05;;;;;;;19.75;12.65;;;333.10;1868.80;;;;;;4861928;29;20037;-58
2021/04/18 16:06:34;;;;;;;18.92;12.63;;;333.10;1843.20;;;;;;4862426;29;20029;-57
2021/04/18 16:08:59;;;;;;;29.48;18.42;;;333.10;1843.20;;;;;;4861767;29;20033;-58
2021/04/18 16:11:26;;;;;;;54.40;25.80;;;333.10;1843.20;;;;;;4861644;29;20121;-58
2021/04/18 16:13:52;;;;;;;15.18;10.25;;;333.00;1868.80;;;;;;4861698;29;20475;-58
2021/04/18 16:16:20;;;;;;;9.93;8.05;;;332.90;1894.40;;;;;;4862135;29;20033;-60
2021/04/18 16:18:47;;;;;;;10.40;7.25;;;332.80;1945.60;;;;;;4861498;29;20430;-58
2021/04/18 16:21:13;;;;;;;17.02;10.57;;;332.80;1920.00;;;;;;4844668;29;20032;-58
2021/04/18 16:23:39;;;;;;;35.10;20.45;;;308.10;1868.80;;;;;;4861946;29;20030;-65
2021/04/18 16:26:04;;;;;;;18.80;11.68;;;308.00;1920.00;;;;;;4861150;29;20026;-68
2021/04/18 16:28:30;;;;;;;22.67;14.23;;;307.90;1945.60;;;;;;4861154;29;20074;-69
2021/04/18 16:30:56;;;;;;;11.48;7.90;;;307.90;1945.60;;;;;;4861577;29;20018;-66
2021/04/18 16:33:21;;;;;;;9.75;6.28;;;307.70;1920.00;;;;;;4851249;29;20046;-68
2021/04/18 16:35:47;;;;;;;8.23;5.50;;;307.60;1945.60;;;;;;4826809;29;20102;-66
2021/04/18 16:38:13;;;;;;;10.35;7.03;;;307.50;1971.20;;;;;;4843431;29;20373;-69
2021/04/18 16:40:39;;;;;;;12.13;7.85;;;307.40;1996.80;;;;;;4826924;29;20067;-68
2021/04/18 16:43:04;;;;;;;8.93;6.40;;;307.40;2022.40;;;;;;4842929;29;20034;-66
2021/04/18 16:45:30;;;;;;;8.02;5.30;;;307.20;2022.40;;;;;;4842464;29;20053;-67
2021/04/18 16:47:56;;;;;;;14.90;9.70;;;307.30;2022.40;;;;;;4842640;29;20356;-67
2021/04/18 16:50:22;;;;;;;21.13;13.38;;;307.30;2048.00;;;;;;4843136;29;20055;-65
2021/04/18 16:52:47;;;;;;;24.13;14.48;;;307.30;2048.00;;;;;;4826740;29;20041;-65
2021/04/18 16:55:13;;;;;;;35.78;20.75;;;307.30;2048.00;;;;;;4842552;29;20030;-63
2021/04/18 16:57:39;;;;;;;30.92;18.67;;;307.20;2073.60;;;;;;4842801;29;20041;-62
2021/04/18 17:00:07;;;;;;;26.83;16.45;;;307.20;2099.20;;;;;;4842447;29;20022;-63
2021/04/18 17:02:32;;;;;;;16.55;10.82;;;282.50;2073.60;;;;;;4842315;29;20026;-65
2021/04/18 17:04:59;;;;;;;14.07;9.93;;;282.50;2073.60;;;;;;4839503;29;20476;-67
2021/04/18 17:07:24;;;;;;;11.40;8.27;;;282.50;2073.60;;;;;;4826257;29;20037;-64
2021/04/18 17:09:50;;;;;;;14.95;10.35;;;282.40;2099.20;;;;;;4844487;29;20034;-67
2021/04/18 17:12:16;;;;;;;12.25;8.85;;;282.30;2150.40;;;;;;4849689;29;20055;-64
2021/04/18 17:14:42;;;;;;;10.48;7.80;;;282.30;2150.40;;;;;;4851311;29;20026;-63
2021/04/18 17:17:08;;;;;;;19.35;12.35;;;282.30;2124.80;;;;;;4849669;29;20034;-64
2021/04/18 17:19:34;;;;;;;17.88;12.45;;;282.20;2150.40;;;;;;4850601;29;20085;-63
2021/04/18 17:22:01;;;;;;;16.98;12.32;;;282.20;2176.00;;;;;;4832318;29;20030;-64
2021/04/18 17:24:27;;;;;;;15.85;11.20;;;282.10;2150.40;;;;;;4855608;29;20422;-64
2021/04/18 17:26:53;;;;;;;17.27;12.20;;;282.10;2176.00;;;;;;4854515;29;20033;-66
2021/04/18 17:29:18;;;;;;;19.23;13.55;;;282.10;2201.60;;;;;;4854513;29;20065;-64
2021/04/18 17:31:44;;;;;;;31.27;20.80;;;282.00;2201.60;;;;;;4853365;29;20087;-65
2021/04/18 17:34:10;;;;;;;31.27;17.98;;;282.00;2227.20;;;;;;4858575;29;20136;-65
2021/04/18 17:36:36;;;;;;;35.85;23.08;;;282.00;2201.60;;;;;;4864693;29;20030;-65
2021/04/18 17:39:02;;;;;;;21.52;14.57;;;282.00;2201.60;;;;;;4864325;29;20117;-64
2021/04/18 17:41:28;;;;;;;17.45;12.77;;;281.90;2227.20;;;;;;4864626;29;20100;-64
2021/04/18 17:43:58;;;;;;;18.58;12.68;;;281.90;2227.20;;;;;;4864248;29;20064;-64
2021/04/18 17:46:24;;;;;;;16.75;11.63;;;281.90;2252.80;;;;;;4864270;29;20021;-64
2021/04/18 17:48:50;;;;;;;20.13;13.63;;;281.90;2201.60;;;;;;4863419;29;20567;-64
2021/04/18 17:51:16;;;;;;;30.52;19.55;;;281.90;2227.20;;;;;;4847607;29;20151;-64
2021/04/18 17:53:41;;;;;;;23.05;15.25;;;281.90;2227.20;;;;;;4864459;29;20108;-65
2021/04/18 17:56:08;;;;;;;26.27;16.88;;;281.90;2227.20;;;;;;4858894;29;20033;-68
2021/04/18 17:58:34;;;;;;;28.77;17.70;;;281.70;2227.20;;;;;;4845775;29;20038;-67
2021/04/18 18:01:00;;;;;;;24.40;15.73;;;281.70;2252.80;;;;;;4845362;29;20037;-65
2021/04/18 18:03:26;;;;;;;30.02;18.83;;;281.70;2227.20;;;;;;4828471;29;20427;-65
2021/04/18 18:05:53;;;;;;;34.03;21.88;;;281.70;2201.60;;;;;;4844935;29;20034;-64
2021/04/18 18:08:19;;;;;;;34.33;22.88;;;281.70;2252.80;;;;;;4845525;29;20065;-65
2021/04/18 18:10:45;;;;;;;36.00;23.75;;;281.60;2278.40;;;;;;4845369;29;20392;-68
2021/04/18 18:13:11;;;;;;;37.25;24.50;;;281.60;2278.40;;;;;;4844938;29;20514;-69
2021/04/18 18:15:38;;;;;;;36.53;24.35;;;281.60;2278.40;;;;;;4852161;29;20120;-66
2021/04/18 18:18:04;;;;;;;30.13;20.90;;;281.60;2278.40;;;;;;4851972;29;20379;-65
2021/04/18 18:20:30;;;;;;;28.73;19.20;;;281.70;2278.40;;;;;;4853279;29;20038;-67
2021/04/18 18:22:55;;;;;;;21.77;15.25;;;256.90;2252.80;;;;;;4851456;29;20128;-66
2021/04/18 18:25:21;;;;;;;18.35;12.38;;;256.90;2252.80;;;;;;4860255;29;20112;-66
2021/04/18 18:27:49;;;;;;;16.42;11.77;;;256.90;2252.80;;;;;;4845608;29;20030;-67
2021/04/18 18:30:17;;;;;;;18.05;11.60;;;256.90;2252.80;;;;;;4844592;29;20121;-65
2021/04/18 18:32:44;;;;;;;14.43;11.30;;;256.90;2252.80;;;;;;4844419;29;20118;-65
2021/04/18 18:35:10;;;;;;;12.50;9.95;;;256.80;2252.80;;;;;;4844428;29;20034;-64
2021/04/18 18:37:37;;;;;;;103.47;40.17;;;256.80;2252.80;;;;;;4844955;29;20030;-64
2021/04/18 18:40:04;;;;;;;19.08;12.00;;;256.80;2252.80;;;;;;4844633;29;20116;-66
2021/04/18 18:42:30;;;;;;;97.22;37.47;;;256.80;2252.80;;;;;;4844748;29;20056;-65
2021/04/18 18:44:56;;;;;;;70.90;30.35;;;256.80;2252.80;;;;;;4845054;29;20277;-65
2021/04/18 18:47:21;;;;;;;23.08;14.13;;;256.80;2252.80;;;;;;4844850;29;20503;-65
2021/04/18 18:49:48;;;;;;;98.20;39.72;;;256.80;2252.80;;;;;;4844677;29;20527;-64
2021/04/18 18:52:15;;;;;;;25.10;15.25;;;256.70;2252.80;;;;;;4844928;29;20030;-63
2021/04/18 18:54:41;;;;;;;28.15;17.20;;;256.80;2252.80;;;;;;4844624;29;20053;-64
2021/04/18 18:57:07;;;;;;;75.28;30.58;;;256.70;2252.80;;;;;;4844704;29;20460;-63
2021/04/18 18:59:33;;;;;;;43.15;20.83;;;256.70;2252.80;;;;;;4848118;29;20067;-65
2021/04/18 19:01:59;;;;;;;133.57;46.40;;;256.70;2252.80;;;;;;4862561;29;20532;-63
2021/04/18 19:04:24;;;;;;;85.20;31.75;;;256.80;2252.80;;;;;;4862977;29;20037;-64
2021/04/18 19:06:50;;;;;;;92.65;34.30;;;256.70;2252.80;;;;;;4862881;29;20384;-66
2021/04/18 19:09:16;;;;;;;37.38;18.42;;;256.70;2252.80;;;;;;4862402;29;20074;-64
2021/04/18 19:11:42;;;;;;;118.75;41.83;;;256.70;2252.80;;;;;;4862871;29;20022;-63
2021/04/18 19:14:08;;;;;;;163.52;53.63;;;256.70;2252.80;;;;;;4852168;29;20120;-63
2021/04/18 19:16:34;;;;;;;96.45;37.00;;;256.70;2252.80;;;;;;4827583;29;20034;-65
2021/04/18 19:19:00;;;;;;;65.47;31.05;;;256.70;2252.80;;;;;;4843737;29;20433;-63
2021/04/18 19:21:26;;;;;;;97.18;42.22;;;256.70;2252.80;;;;;;4844343;29;20034;-62
2021/04/18 19:23:51;;;;;;;76.00;37.85;;;256.60;2252.80;;;;;;4827030;29;20034;-62
2021/04/18 19:26:17;;;;;;;52.85;30.63;;;256.60;2252.80;;;;;;4844252;29;20036;-67
2021/04/18 19:28:43;;;;;;;104.68;43.88;;;256.50;2252.80;;;;;;4844256;29;20391;-67
2021/04/18 19:31:09;;;;;;;43.42;24.92;;;256.50;2252.80;;;;;;4843982;29;20476;-64
2021/04/18 19:33:40;;;;;;;119.28;50.08;;;256.60;2252.80;;;;;;4843590;29;20068;-63
2021/04/18 19:36:09;;;;;;;67.70;32.45;;;256.50;2252.80;;;;;;4844002;29;20404;-63
2021/04/18 19:38:35;;;;;;;96.95;42.03;;;256.50;2252.80;;;;;;4844055;29;20042;-65
2021/04/18 19:41:03;;;;;;;145.48;59.17;;;256.50;2252.80;;;;;;4843905;29;20034;-66
2021/04/18 19:43:29;;;;;;;63.95;33.78;;;256.40;2252.80;;;;;;4843506;29;20030;-63
2021/04/18 19:45:55;;;;;;;124.70;56.00;;;256.40;2252.80;;;;;;4850574;29;20025;-66
2021/04/18 19:48:21;;;;;;;60.75;36.00;;;256.40;2252.80;;;;;;4852989;29;20384;-64
2021/04/18 19:50:46;;;;;;;43.15;25.55;;;256.50;2252.80;;;;;;4861961;29;20177;-63
2021/04/18 19:53:12;;;;;;;75.05;40.10;;;256.40;2252.80;;;;;;4861538;29;20033;-63
2021/04/18 19:55:38;;;;;;;53.85;31.02;;;256.40;2252.80;;;;;;4861740;29;20050;-64
2021/04/18 19:58:05;;;;;;;51.28;29.52;;;256.40;2252.80;;;;;;4861607;29;20036;-63
2021/04/18 20:00:31;;;;;;;59.58;37.80;;;256.40;2252.80;;;;;;4862099;29;20510;-66
2021/04/18 20:02:57;;;;;;;50.45;31.92;;;256.30;2252.80;;;;;;4861948;29;20105;-63
2021/04/18 20:05:23;;;;;;;48.75;31.10;;;256.30;2252.80;;;;;;4861214;29;20523;-65
2021/04/18 20:07:49;;;;;;;38.33;25.13;;;256.30;2252.80;;;;;;4861843;29;20033;-66
2021/04/18 20:10:18;;;;;;;51.45;28.55;;;256.30;2252.80;;;;;;4861823;29;20495;-64
2021/04/18 20:12:44;;;;;;;38.15;23.42;;;256.20;2252.80;;;;;;4861853;29;20030;-63
2021/04/18 20:15:10;;;;;;;45.92;26.83;;;256.10;2252.80;;;;;;4861736;29;20041;-64
2021/04/18 20:17:41;;;;;;;66.93;35.00;;;256.10;2252.80;;;;;;4861742;29;20030;-64
2021/04/18 20:20:09;;;;;;;71.38;37.50;;;256.10;2252.80;;;;;;4861844;29;20036;-64
2021/04/18 20:22:35;;;;;;;58.22;33.28;;;256.10;2252.80;;;;;;4861711;29;20072;-62
2021/04/18 20:25:01;;;;;;;53.17;30.92;;;256.10;2252.80;;;;;;4861501;29;20098;-64
2021/04/18 20:27:27;;;;;;;56.40;31.58;;;256.10;2252.80;;;;;;4861365;29;20037;-66
2021/04/18 20:29:53;;;;;;;62.90;35.35;;;256.10;2252.80;;;;;;4861503;29;20037;-62
2021/04/18 20:32:22;;;;;;;59.88;33.72;;;256.10;2252.80;;;;;;4858701;29;20068;-63
2021/04/18 20:34:50;;;;;;;65.57;36.50;;;256.10;2252.80;;;;;;4852055;29;20036;-64
2021/04/18 20:37:17;;;;;;;54.85;30.67;;;256.10;2252.80;;;;;;4851327;29;20025;-62
2021/04/18 20:39:43;;;;;;;63.70;32.13;;;256.10;2252.80;;;;;;4850401;29;20056;-68
2021/04/18 20:42:09;;;;;;;44.22;24.83;;;256.10;2252.80;;;;;;4851962;29;20033;-68
2021/04/18 20:44:34;;;;;;;33.72;19.05;;;256.10;2252.80;;;;;;4848002;29;20025;-67
2021/04/18 20:47:00;;;;;;;71.22;30.42;;;256.10;2252.80;;;;;;4844021;29;20030;-68
2021/04/18 20:49:26;;;;;;;88.32;36.47;;;256.10;2252.80;;;;;;4844508;29;20038;-65
2021/04/18 20:51:52;;;;;;;101.95;42.72;;;256.10;2252.80;;;;;;4843486;29;20041;-63
2021/04/18 20:54:18;;;;;;;72.68;33.45;;;256.00;2252.80;;;;;;4843526;29;20034;-69
2021/04/18 20:56:44;;;;;;;89.75;41.03;;;256.00;2252.80;;;;;;4843259;29;20025;-69
2021/04/18 20:59:10;;;;;;;88.13;40.30;;;256.00;2252.80;;;;;;4843848;29;20037;-67
2021/04/18 21:01:36;;;;;;;55.35;27.38;;;256.10;2252.80;;;;;;4844115;29;20112;-67
2021/04/18 21:04:01;;;;;;;42.40;23.05;;;256.10;2252.80;;;;;;4842979;29;20201;-62
2021/04/18 21:06:28;;;;;;;48.88;26.02;;;256.00;2252.80;;;;;;4843108;29;20022;-62
2021/04/18 21:08:55;;;;;;;88.28;40.63;;;256.00;2252.80;;;;;;4842755;29;20042;-65
2021/04/18 21:11:21;;;;;;;86.97;38.72;;;256.10;2252.80;;;;;;4843010;29;20030;-62
2021/04/18 21:13:47;;;;;;;55.22;26.55;;;256.00;2252.80;;;;;;4842837;29;20033;-63
2021/04/18 21:16:12;;;;;;;27.55;15.77;;;256.00;2252.80;;;;;;4842760;29;20026;-63
2021/04/18 21:18:38;;;;;;;32.55;16.83;;;256.00;2252.80;;;;;;4851386;29;20029;-62
2021/04/18 21:21:05;;;;;;;37.60;19.35;;;256.00;2252.80;;;;;;4845860;29;20034;-66
2021/04/18 21:23:30;;;;;;;45.40;24.00;;;256.00;2252.80;;;;;;4849700;29;20395;-66
2021/04/18 21:25:56;;;;;;;47.72;24.02;;;231.30;2252.80;;;;;;4849083;29;20030;-64
2021/04/18 21:28:22;;;;;;;32.72;17.13;;;231.30;2252.80;;;;;;4842576;29;20038;-63
2021/04/18 21:30:48;;;;;;;23.20;13.20;;;256.00;2252.80;;;;;;4842703;29;20468;-62
2021/04/18 21:33:14;;;;;;;25.63;14.40;;;256.00;2252.80;;;;;;4846444;29;20507;-63
2021/04/18 21:35:39;;;;;;;21.63;12.68;;;256.00;2252.80;;;;;;4842231;29;20090;-63
2021/04/18 21:38:05;;;;;;;26.90;14.98;;;256.00;2252.80;;;;;;4842776;29;20066;-63
2021/04/18 21:40:31;;;;;;;26.73;14.50;;;256.00;2252.80;;;;;;4842845;29;20376;-62
2021/04/18 21:42:57;;;;;;;20.70;12.15;;;256.00;2252.80;;;;;;4842344;29;20037;-68
2021/04/18 21:45:23;;;;;;;17.75;10.30;;;256.00;2252.80;;;;;;4842263;29;20026;-63
2021/04/18 21:47:49;;;;;;;17.17;10.02;;;256.00;2252.80;;;;;;4842578;29;20053;-63
2021/04/18 21:50:15;;;;;;;16.33;9.65;;;231.30;2252.80;;;;;;4842389;29;20060;-65
2021/04/18 21:52:41;;;;;;;21.08;11.00;;;231.30;2252.80;;;;;;4842592;29;20059;-63
2021/04/18 21:55:08;;;;;;;29.67;16.00;;;231.30;2252.80;;;;;;4848708;29;20101;-62
2021/04/18 21:57:34;;;;;;;26.23;14.25;;;231.30;2252.80;;;;;;4831562;29;20120;-62
2021/04/18 22:00:00;;;;;;;23.67;15.82;;;256.20;2252.80;;;;;;4843947;29;20457;-65
2021/04/18 22:02:26;;;;;;;21.40;14.90;;;231.20;2252.80;;;;;;4841859;29;20049;-63
2021/04/18 22:04:52;;;;;;;18.10;11.68;;;231.20;2252.80;;;;;;4825052;29;20076;-63
2021/04/18 22:07:18;;;;;;;16.33;11.23;;;231.10;2252.80;;;;;;4842128;29;20533;-64
2021/04/18 22:09:44;;;;;;;29.85;16.23;;;231.00;2252.80;;;;;;4844624;29;20038;-62
2021/04/18 22:12:10;;;;;;;52.17;22.80;;;231.00;2252.80;;;;;;4845464;29;20026;-62
2021/04/18 22:14:36;;;;;;;71.40;29.52;;;231.00;2252.80;;;;;;4848016;29;20057;-64
2021/04/18 22:17:01;;;;;;;68.90;29.63;;;230.90;2252.80;;;;;;4853773;29;20052;-64
2021/04/18 22:19:27;;;;;;;89.47;37.67;;;230.90;2252.80;;;;;;4861016;29;20029;-62
2021/04/18 22:21:53;;;;;;;52.28;24.40;;;230.90;2252.80;;;;;;4856520;29;20034;-64
2021/04/18 22:24:18;;;;;;;41.40;19.50;;;230.90;2252.80;;;;;;4849495;29;20038;-62
2021/04/18 22:26:45;;;;;;;24.92;13.05;;;230.80;2252.80;;;;;;4850371;29;20034;-63
2021/04/18 22:29:11;;;;;;;27.52;13.23;;;230.80;2252.80;;;;;;4853822;29;20113;-65
2021/04/18 22:31:38;;;;;;;24.35;12.75;;;230.80;2252.80;;;;;;4846101;29;20112;-64
2021/04/18 22:34:04;;;;;;;25.42;12.85;;;230.80;2252.80;;;;;;4828596;29;20077;-62
2021/04/18 22:36:29;;;;;;;22.17;12.57;;;230.80;2252.80;;;;;;4847897;29;20056;-65
2021/04/18 22:38:55;;;;;;;24.17;12.88;;;230.80;2252.80;;;;;;4854021;29;20025;-66
2021/04/18 22:41:21;;;;;;;27.95;13.45;;;230.80;2252.80;;;;;;4853378;29;20029;-62
2021/04/18 22:43:47;;;;;;;23.33;13.43;;;230.80;2252.80;;;;;;4854507;29;20025;-63
2021/04/18 22:46:12;;;;;;;28.08;13.75;;;230.80;2252.80;;;;;;4853839;29;20025;-63
2021/04/18 22:48:38;;;;;;;26.33;13.88;;;230.80;2252.80;;;;;;4853330;29;20034;-63
2021/04/18 22:51:04;;;;;;;33.00;15.40;;;230.80;2252.80;;;;;;4861674;29;20037;-62
2021/04/18 22:53:30;;;;;;;26.75;14.52;;;230.80;2252.80;;;;;;4858028;29;20479;-62
2021/04/18 22:55:55;;;;;;;23.33;14.32;;;230.80;2252.80;;;;;;4849927;29;20025;-62
2021/04/18 22:58:21;;;;;;;20.20;13.70;;;230.80;2252.80;;;;;;4845014;29;20030;-64
2021/04/18 23:00:47;;;;;;;20.35;13.82;;;230.80;2252.80;;;;;;4845108;29;20034;-62
2021/04/18 23:03:13;;;;;;;22.50;14.77;;;230.80;2252.80;;;;;;4843928;29;20469;-62
2021/04/18 23:05:39;;;;;;;19.80;13.48;;;230.80;2252.80;;;;;;4843099;29;20054;-63
2021/04/18 23:08:05;;;;;;;22.38;15.43;;;230.80;2252.80;;;;;;4843144;29;20026;-68
2021/04/18 23:10:30;;;;;;;22.70;15.38;;;230.70;2252.80;;;;;;4842924;29;20547;-64
2021/04/18 23:12:56;;;;;;;22.48;16.02;;;230.80;2252.80;;;;;;4847994;29;20120;-62
2021/04/18 23:15:22;;;;;;;23.48;16.30;;;230.70;2252.80;;;;;;4850871;29;20037;-62
2021/04/18 23:17:47;;;;;;;26.60;16.98;;;230.70;2252.80;;;;;;4852140;29;20084;-62
2021/04/18 23:20:14;;;;;;;24.08;16.33;;;230.70;2252.80;;;;;;4850384;29;20037;-62
2021/04/18 23:22:40;;;;;;;25.70;17.15;;;230.70;2252.80;;;;;;4852884;29;20025;-62
2021/04/18 23:25:07;;;;;;;25.92;17.65;;;230.70;2252.80;;;;;;4852797;29;20472;-62
2021/04/18 23:27:32;;;;;;;27.83;18.50;;;230.70;2252.80;;;;;;4851442;29;20034;-63
2021/04/18 23:29:58;;;;;;;27.58;19.20;;;230.70;2252.80;;;;;;4836121;29;20041;-63